Time;durP1;ratioP1;P1;durP2;ratioP2;P2;SDS_P1;SDS_P2;PMS_P1;PMS_P2;Temp;Humidity;BMP_temperature;BMP_pressure;BME280_temperature;BME280_humidity;BME280_pressure;Samples;Min_cycle;Max_cycle;Signal;HPM_P1;HPM_P2
2022/02/08 00:01:59;;;;;;;16.73;3.10;;;5.60;99.90;;;6.12;93.24;101557.81;5032483;28;20029;-79
2022/02/08 00:04:25;;;;;;;12.40;3.03;;;5.50;99.90;;;6.13;93.86;101554.72;5014628;28;20214;-78
2022/02/08 00:06:51;;;;;;;11.82;2.78;;;5.50;99.90;;;6.13;93.83;101551.94;5032142;28;20026;-79
2022/02/08 00:09:19;;;;;;;14.38;2.85;;;5.50;99.90;;;6.22;94.16;101557.63;5031897;28;20088;-79
2022/02/08 00:11:45;;;;;;;18.65;3.13;;;5.60;99.90;;;6.28;93.98;101553.63;5032519;28;20701;-78
2022/02/08 00:14:12;;;;;;;12.98;3.10;;;5.60;99.90;;;6.33;93.60;101550.72;5014432;28;20029;-79
2022/02/08 00:16:38;;;;;;;14.68;2.30;;;5.70;99.90;;;6.36;93.99;101550.13;5032014;28;20080;-79
2022/02/08 00:19:07;;;;;;;12.90;2.75;;;5.70;99.90;;;6.48;94.21;101557.94;5031990;28;20064;-79
2022/02/08 00:21:33;;;;;;;14.30;2.83;;;5.70;99.90;;;6.43;94.48;101563.56;5031785;28;20431;-78
2022/02/08 00:24:00;;;;;;;17.40;2.95;;;5.80;99.90;;;6.49;94.18;101557.63;5031509;28;20033;-77
2022/02/08 00:26:26;;;;;;;10.27;3.40;;;5.80;99.90;;;6.48;94.67;101560.72;5047906;28;20364;-79
2022/02/08 00:28:52;;;;;;;9.70;2.67;;;5.80;99.90;;;6.60;94.70;101558.25;5071327;28;20032;-80
2022/02/08 00:31:19;;;;;;;15.45;2.85;;;5.80;99.90;;;6.53;94.97;101547.53;5071331;28;20074;-80
2022/02/08 00:33:46;;;;;;;11.68;2.65;;;5.80;99.90;;;6.52;94.85;101547.88;5053368;28;20032;-80
2022/02/08 00:36:15;;;;;;;15.40;3.40;;;5.80;99.90;;;6.55;96.03;101556.38;5072070;28;20020;-79
2022/02/08 00:38:41;;;;;;;10.90;3.00;;;5.90;99.90;;;6.56;96.64;101546.09;5069374;28;20115;-78
2022/02/08 00:41:12;;;;;;;11.93;3.40;;;5.90;99.90;;;6.61;97.09;101541.28;5071776;28;20132;-79
2022/02/08 00:43:49;;;;;;;12.73;3.10;;;5.90;99.90;;;6.64;96.89;101545.38;5071101;28;20070;-78
2022/02/08 00:46:27;;;;;;;12.38;3.22;;;5.90;99.90;;;6.66;97.35;101543.94;5053113;28;20053;-79
2022/02/08 00:48:57;;;;;;;15.77;3.17;;;5.90;99.90;;;6.70;97.66;101544.97;5071225;28;20027;-78
2022/02/08 00:51:40;;;;;;;15.63;3.60;;;6.00;99.90;;;6.65;98.58;101545.06;5071144;28;20051;-80
2022/02/08 00:54:06;;;;;;;19.83;3.35;;;6.00;99.90;;;6.58;99.29;101539.09;5053326;28;20143;-79
2022/02/08 00:56:32;;;;;;;18.33;3.47;;;6.00;99.90;;;6.54;100.00;101548.38;5071151;28;20029;-79
2022/02/08 00:58:58;;;;;;;10.80;4.10;;;6.00;99.90;;;6.61;100.00;101544.06;5053013;28;20039;-79
2022/02/08 01:01:27;;;;;;;15.73;2.80;;;6.00;99.90;;;6.63;100.00;101538.19;5071139;28;20399;-80
2022/02/08 01:03:53;;;;;;;21.48;3.75;;;5.90;99.90;;;6.48;100.00;101547.66;5070991;28;20097;-80
2022/02/08 01:06:25;;;;;;;11.55;3.55;;;5.90;99.90;;;6.47;100.00;101546.00;5070806;28;20048;-79
2022/02/08 01:09:06;;;;;;;18.90;3.92;;;5.90;99.90;;;6.57;100.00;101547.75;5070928;28;20064;-79
2022/02/08 01:11:35;;;;;;;15.38;4.38;;;5.90;99.90;;;6.55;100.00;101555.59;5070991;28;20453;-78
2022/02/08 01:14:08;;;;;;;18.92;4.18;;;5.90;99.90;;;6.46;100.00;101552.69;5052839;28;20028;-78
2022/02/08 01:16:34;;;;;;;14.30;4.05;;;5.80;99.90;;;6.34;100.00;101549.63;5070935;28;20099;-79
2022/02/08 01:19:04;;;;;;;19.90;3.85;;;5.80;99.90;;;6.27;100.00;101546.41;5070782;28;20125;-80
2022/02/08 01:21:31;;;;;;;22.38;3.55;;;5.80;99.90;;;6.33;100.00;101545.19;5069726;28;20523;-80
2022/02/08 01:24:00;;;;;;;16.90;3.70;;;5.70;99.90;;;6.35;100.00;101546.53;5071121;28;20036;-80
2022/02/08 01:26:28;;;;;;;18.10;4.32;;;5.70;99.90;;;6.22;100.00;101549.31;5063008;28;20017;-77
2022/02/08 01:29:18;;;;;;;19.45;5.60;;;5.70;99.90;;;6.37;100.00;101537.91;5049568;28;20119;-79
2022/02/08 01:31:50;;;;;;;21.10;5.20;;;5.70;99.90;;;6.34;100.00;101535.75;5033215;28;20048;-81
2022/02/08 01:34:36;;;;;;;20.85;3.72;;;5.70;99.90;;;6.34;100.00;101542.13;5051219;28;20087;-79
2022/02/08 01:37:20;;;;;;;16.98;4.80;;;5.70;99.90;;;6.30;100.00;101532.75;5049382;28;20053;-79
2022/02/08 01:40:10;;;;;;;25.73;4.70;;;5.70;99.90;;;6.27;100.00;101538.09;5050968;28;20063;-81
2022/02/08 01:42:51;;;;;;;15.57;3.70;;;5.70;99.90;;;6.39;100.00;101537.59;5051006;28;20021;-80
2022/02/08 01:45:46;;;;;;;24.27;4.50;;;5.70;99.90;;;6.24;100.00;101531.22;5037141;28;20028;-82
2022/02/08 01:48:16;;;;;;;18.42;4.72;;;5.70;99.90;;;6.27;100.00;101536.16;5066925;28;20033;-81
2022/02/08 01:50:47;;;;;;;20.05;3.88;;;5.70;99.90;;;6.28;100.00;101539.75;5071449;28;20027;-78
2022/02/08 01:53:16;;;;;;;20.70;4.60;;;5.70;99.90;;;6.22;100.00;101532.66;5055779;28;20147;-80
2022/02/08 01:55:43;;;;;;;20.10;5.13;;;5.60;99.90;;;6.22;100.00;101532.66;5054344;28;20100;-79
2022/02/08 01:58:09;;;;;;;16.95;4.45;;;5.60;99.90;;;6.25;100.00;101532.88;5036464;28;20028;-78
2022/02/08 02:00:35;;;;;;;22.63;4.53;;;5.60;99.90;;;6.26;100.00;101531.72;5054375;28;20060;-78
2022/02/08 02:03:01;;;;;;;27.25;5.38;;;5.60;99.90;;;6.22;100.00;101530.72;5054217;28;20057;-82
2022/02/08 02:05:27;;;;;;;17.80;4.78;;;5.60;99.90;;;6.10;100.00;101524.81;5053962;28;20028;-81
2022/02/08 02:07:53;;;;;;;25.52;5.50;;;5.50;99.90;;;6.01;100.00;101520.28;5054562;28;20448;-80
2022/02/08 02:10:20;;;;;;;20.77;4.93;;;5.50;99.90;;;6.05;100.00;101518.56;5053693;28;20033;-78
2022/02/08 02:12:58;;;;;;;17.08;5.15;;;5.50;99.90;;;6.03;100.00;101515.28;5053846;28;20036;-80
2022/02/08 02:15:29;;;;;;;16.58;5.15;;;5.50;99.90;;;6.08;100.00;101520.72;5054148;28;20027;-80
2022/02/08 02:17:56;;;;;;;18.55;4.47;;;5.50;99.90;;;6.11;100.00;101511.78;5053653;28;20040;-81
2022/02/08 02:20:25;;;;;;;19.67;5.53;;;5.50;99.90;;;6.03;100.00;101510.56;5053568;28;20052;-79
2022/02/08 02:22:51;;;;;;;19.38;5.75;;;5.40;99.90;;;5.97;100.00;101510.97;5053612;28;20032;-80
2022/02/08 02:25:32;;;;;;;21.20;5.15;;;5.40;99.90;;;6.05;100.00;101508.28;5053480;28;20037;-78
2022/02/08 02:28:03;;;;;;;21.08;5.55;;;5.40;99.90;;;5.99;100.00;101509.53;5033498;28;20037;-79
2022/02/08 02:30:33;;;;;;;17.75;5.05;;;5.40;99.90;;;5.90;100.00;101502.22;5033644;28;20385;-79
2022/02/08 02:33:01;;;;;;;17.55;5.55;;;5.40;99.90;;;5.92;100.00;101506.34;5015639;28;20025;-79
2022/02/08 02:35:28;;;;;;;13.02;5.07;;;5.30;99.90;;;5.90;100.00;101499.44;5033412;28;20369;-79
2022/02/08 02:37:58;;;;;;;19.50;5.40;;;5.30;99.90;;;5.98;100.00;101498.72;5033422;28;20045;-81
2022/02/08 02:40:25;;;;;;;16.42;5.13;;;5.30;99.90;;;5.93;100.00;101494.13;5033250;28;20036;-80
2022/02/08 02:42:54;;;;;;;21.70;5.32;;;5.40;99.90;;;5.94;100.00;101492.97;5033392;28;20041;-80
2022/02/08 02:45:21;;;;;;;13.48;4.55;;;5.40;99.90;;;6.06;100.00;101495.25;5015315;28;20454;-80
2022/02/08 02:47:53;;;;;;;13.82;4.72;;;5.40;99.90;;;6.00;100.00;101485.41;5033182;28;20033;-80
2022/02/08 02:50:22;;;;;;;17.05;4.35;;;5.40;99.90;;;6.10;100.00;101499.84;5015287;28;20030;-78
2022/02/08 02:52:49;;;;;;;13.88;4.63;;;5.50;99.90;;;6.18;100.00;101487.25;5033068;28;20095;-79
2022/02/08 02:55:16;;;;;;;11.23;4.80;;;5.50;99.90;;;6.21;100.00;101489.41;5015288;28;20420;-80
2022/02/08 02:57:51;;;;;;;11.27;4.50;;;5.60;99.90;;;6.32;100.00;101490.84;5015108;28;20556;-79
2022/02/08 03:03:32;;;;;;;;;;;5.70;99.90;;;6.32;100.00;101486.09;5024357;28;20547;-78
2022/02/08 03:17:25;;;;;;;10.77;4.82;;;5.70;99.90;;;6.26;100.00;101480.97;5033431;28;19909;-80
2022/02/08 03:19:48;;;;;;;11.30;5.55;;;5.80;99.90;;;6.42;100.00;101475.94;5032760;28;20111;-79
2022/02/08 03:22:14;;;;;;;9.68;5.30;;;5.70;99.90;;;6.28;100.00;101474.00;5032410;28;20034;-80
2022/02/08 03:24:46;;;;;;;8.88;5.65;;;5.80;99.90;;;6.25;100.00;101480.16;5014744;28;20124;-82
2022/02/08 03:27:15;;;;;;;11.80;5.63;;;5.70;99.90;;;6.34;100.00;101471.91;5061733;28;20450;-82
2022/02/08 03:29:42;;;;;;;10.93;5.32;;;5.70;99.90;;;6.37;100.00;101465.75;5073746;28;20096;-81
2022/02/08 03:32:08;;;;;;;12.68;5.40;;;5.70;99.90;;;6.36;100.00;101470.47;5074137;28;20036;-80
2022/02/08 03:34:34;;;;;;;8.30;5.07;;;5.70;99.90;;;6.40;100.00;101476.22;5074555;28;20202;-81
2022/02/08 03:37:04;;;;;;;9.48;5.15;;;5.70;99.90;;;6.38;100.00;101475.72;5074133;28;20029;-80
2022/02/08 03:39:37;;;;;;;8.65;4.97;;;5.70;99.90;;;6.43;100.00;101478.38;5055824;28;20033;-80
2022/02/08 03:42:09;;;;;;;9.23;4.50;;;5.80;99.90;;;6.51;100.00;101476.84;5073455;28;20028;-78
2022/02/08 03:44:35;;;;;;;8.27;4.68;;;5.80;99.90;;;6.47;100.00;101482.19;5072372;28;20051;-80
2022/02/08 03:47:06;;;;;;;7.05;4.30;;;5.80;99.90;;;6.53;100.00;101496.75;5073170;28;20028;-80
2022/02/08 03:49:40;;;;;;;9.40;4.30;;;5.90;99.90;;;6.52;100.00;101484.03;5072431;28;20029;-78
2022/02/08 03:52:09;;;;;;;8.68;4.88;;;5.90;99.90;;;6.53;100.00;101482.88;5073892;28;20021;-78
2022/02/08 03:54:36;;;;;;;12.73;6.13;;;5.90;99.90;;;6.56;100.00;101485.88;5074173;28;20066;-78
2022/02/08 03:57:07;;;;;;;14.77;5.93;;;5.90;99.90;;;6.45;100.00;101476.13;5073155;28;20484;-80
2022/02/08 03:59:33;;;;;;;9.70;5.75;;;5.90;99.90;;;6.47;100.00;101482.19;5055523;28;20047;-80
2022/02/08 04:04:48;;;;;;;12.95;6.03;;;5.90;99.90;;;6.58;100.00;101483.59;5071719;28;20476;-79
2022/02/08 04:09:52;;;;;;;7.73;5.10;;;5.90;99.90;;;6.57;100.00;101481.13;5073262;28;20438;-82
2022/02/08 04:12:31;;;;;;;11.45;5.90;;;5.90;99.90;;;6.58;100.00;101491.91;5072812;28;20615;-79
2022/02/08 04:37:01;;;;;;;10.43;7.45;;;6.20;99.90;;;6.93;100.00;101475.59;5032878;28;20036;-79
2022/02/08 04:39:50;;;;;;;19.03;8.67;;;6.30;99.90;;;6.88;100.00;101474.56;5031974;28;20043;-79
2022/02/08 04:42:18;;;;;;;21.02;9.23;;;6.30;99.90;;;6.92;100.00;101471.16;5030522;28;20412;-80
2022/02/08 04:47:32;;;;;;;16.15;10.30;;;6.30;99.90;;;6.93;100.00;101473.66;5031223;28;20503;-78
2022/02/08 04:49:58;;;;;;;15.70;9.73;;;6.30;99.90;;;7.06;100.00;101470.00;5013605;28;20033;-81
2022/02/08 04:52:28;;;;;;;19.55;10.75;;;6.40;99.90;;;7.15;100.00;101478.41;5031770;28;20443;-82
2022/02/08 04:57:52;;;;;;;16.58;10.50;;;6.40;99.90;;;7.13;100.00;101475.91;5034084;28;20103;-78
2022/02/08 05:00:30;;;;;;;14.80;9.48;;;6.40;99.90;;;7.24;100.00;101480.09;5033697;28;20040;-76
2022/02/08 05:36:23;;;;;;;23.20;11.60;;;6.80;99.90;;;7.56;100.00;101465.09;5078046;28;20035;-77
2022/02/08 05:42:20;;;;;;;21.92;11.68;;;6.80;99.90;;;7.66;100.00;101464.84;4995582;28;20040;-77
2022/02/08 05:44:46;;;;;;;22.23;11.05;;;6.90;99.90;;;7.68;100.00;101467.28;4995257;28;20105;-77
2022/02/08 05:47:13;;;;;;;21.92;11.90;;;6.90;99.90;;;7.68;100.00;101475.63;5048723;28;20047;-79
2022/02/08 05:49:45;;;;;;;16.67;10.60;;;6.90;99.90;;;7.75;100.00;101474.03;5076544;28;20105;-75
2022/02/08 05:54:42;;;;;;;21.75;11.25;;;7.00;99.90;;;7.82;100.00;101470.81;5081519;28;20029;-80
2022/02/08 05:57:10;;;;;;;21.63;12.50;;;7.00;99.90;;;7.80;100.00;101457.19;5092081;28;20048;-80
2022/02/08 05:59:38;;;;;;;19.98;12.38;;;7.10;99.90;;;7.87;100.00;101462.31;5090815;28;20024;-79
2022/02/08 06:02:08;;;;;;;21.48;11.25;;;7.10;99.90;;;7.90;100.00;101468.06;5060317;28;20442;-79
2022/02/08 06:04:37;;;;;;;17.92;10.75;;;7.10;99.90;;;7.89;100.00;101469.22;5077304;28;20025;-81
2022/02/08 06:07:04;;;;;;;22.55;11.50;;;7.10;99.90;;;7.93;100.00;101472.97;5077948;28;20027;-78
2022/02/08 06:09:29;;;;;;;16.83;10.63;;;7.20;99.90;;;7.95;100.00;101467.09;5078057;28;20036;-76
2022/02/08 06:11:55;;;;;;;19.65;9.73;;;7.20;99.90;;;7.93;100.00;101470.19;5078093;28;20028;-75
2022/02/08 06:14:25;;;;;;;19.98;10.23;;;7.20;99.90;;;7.97;100.00;101465.63;5078823;28;20036;-79
2022/02/08 06:16:52;;;;;;;14.88;9.18;;;7.20;99.90;;;8.04;100.00;101464.34;5078142;28;20021;-77
2022/02/08 06:19:19;;;;;;;16.85;9.63;;;7.20;99.90;;;7.96;100.00;101454.84;5077636;28;20037;-77
2022/02/08 06:21:44;;;;;;;13.27;9.00;;;7.20;99.90;;;7.96;100.00;101455.63;5076649;28;20433;-78
2022/02/08 06:24:14;;;;;;;13.45;9.23;;;7.30;99.90;;;8.00;100.00;101461.38;5060322;28;20035;-78
2022/02/08 06:26:40;;;;;;;15.13;9.18;;;7.30;99.90;;;8.02;100.00;101461.06;5067379;28;20052;-77
2022/02/08 06:29:12;;;;;;;14.45;8.00;;;7.30;99.90;;;8.05;100.00;101466.00;5038515;28;20032;-77
2022/02/08 06:31:41;;;;;;;16.00;9.10;;;7.40;99.90;;;8.11;100.00;101475.84;5056861;28;20374;-78
2022/02/08 06:34:13;;;;;;;12.82;8.30;;;7.40;99.90;;;8.17;100.00;101491.25;5056306;28;20029;-77
2022/02/08 06:36:42;;;;;;;11.90;7.97;;;7.30;99.90;;;8.13;100.00;101473.53;5036191;28;20040;-79
2022/02/08 06:39:08;;;;;;;10.65;7.40;;;7.40;99.90;;;8.10;100.00;101485.31;5037090;28;20372;-80
2022/02/08 06:41:37;;;;;;;10.15;7.72;;;7.30;99.90;;;8.11;100.00;101478.63;5036740;28;20029;-78
2022/02/08 06:44:04;;;;;;;13.30;8.38;;;7.30;99.90;;;8.13;100.00;101481.88;5054864;28;20504;-79
2022/02/08 06:46:30;;;;;;;11.57;8.10;;;7.30;99.90;;;8.05;100.00;101477.13;5037143;28;20037;-78
2022/02/08 06:48:56;;;;;;;16.23;7.30;;;7.30;99.90;;;8.14;100.00;101494.66;5056260;28;20051;-78
2022/02/08 06:51:22;;;;;;;9.55;7.45;;;7.30;99.90;;;8.05;100.00;101496.59;5056683;28;20029;-79
2022/02/08 06:53:47;;;;;;;9.68;6.80;;;7.30;99.90;;;8.06;100.00;101512.16;5037958;28;20055;-80
2022/02/08 06:56:13;;;;;;;9.45;6.70;;;7.30;99.90;;;8.08;100.00;101499.56;5056029;28;20025;-79
2022/02/08 06:58:49;;;;;;;12.05;7.07;;;7.30;99.90;;;8.20;100.00;101504.50;5056185;28;20135;-79
2022/02/08 07:01:17;;;;;;;12.65;6.72;;;7.40;99.90;;;8.13;100.00;101507.75;5037527;28;20021;-80
2022/02/08 07:03:46;;;;;;;10.55;7.32;;;7.40;99.90;;;8.20;100.00;101504.50;5058510;28;20045;-75
2022/02/08 07:06:12;;;;;;;12.38;7.75;;;7.40;99.90;;;8.18;100.00;101509.59;5038073;28;20021;-76
2022/02/08 07:08:41;;;;;;;10.88;6.97;;;7.40;99.90;;;8.22;100.00;101510.59;5056725;28;20533;-77
2022/02/08 07:11:14;;;;;;;10.93;7.10;;;7.40;99.90;;;8.19;100.00;101520.38;5038588;28;20364;-78
2022/02/08 07:13:45;;;;;;;12.00;7.95;;;7.40;99.90;;;8.21;100.00;101520.91;5055859;28;20043;-78
2022/02/08 07:16:13;;;;;;;11.50;7.75;;;7.50;99.90;;;8.18;100.00;101524.34;5056171;28;20051;-78
2022/02/08 07:18:39;;;;;;;12.63;7.65;;;7.50;99.90;;;8.21;100.00;101514.50;5055582;28;20040;-79
2022/02/08 07:21:09;;;;;;;12.05;7.32;;;7.50;99.90;;;8.31;100.00;101525.41;5054858;28;20029;-79
2022/02/08 07:23:39;;;;;;;9.23;6.82;;;7.50;99.90;;;8.32;100.00;101521.44;5036961;28;20032;-78
2022/02/08 07:26:06;;;;;;;11.68;6.95;;;7.50;99.90;;;8.35;100.00;101523.59;5059473;28;20021;-77
2022/02/08 07:28:41;;;;;;;11.63;6.40;;;7.50;99.90;;;8.37;100.00;101519.34;5074178;28;20033;-78
2022/02/08 07:31:22;;;;;;;9.07;6.60;;;7.60;99.90;;;8.35;100.00;101526.38;5073804;28;20399;-79
2022/02/08 07:33:55;;;;;;;11.88;7.45;;;7.60;99.90;;;8.37;100.00;101521.31;5073977;28;20025;-80
2022/02/08 07:38:49;;;;;;;9.93;6.43;;;7.60;99.90;;;8.40;100.00;101520.69;5074258;28;20032;-76
2022/02/08 07:43:59;;;;;;;8.23;6.47;;;7.70;99.90;;;8.45;100.00;101540.00;5074595;28;20483;-78
2022/02/08 07:46:28;;;;;;;9.40;6.35;;;7.70;99.90;;;8.50;100.00;101537.09;5074839;28;20029;-78
2022/02/08 07:48:54;;;;;;;10.02;6.80;;;7.70;99.90;;;8.50;100.00;101539.88;5074520;28;20081;-78
2022/02/08 07:51:22;;;;;;;9.88;7.38;;;7.70;99.90;;;8.48;100.00;101531.00;5056140;28;20409;-76
2022/02/08 07:53:51;;;;;;;10.85;7.05;;;7.70;99.90;;;8.47;100.00;101523.81;5072924;28;20024;-79
2022/02/08 07:56:17;;;;;;;9.88;7.22;;;7.80;99.90;;;8.53;100.00;101524.47;5056793;28;20451;-80
2022/02/08 07:58:43;;;;;;;7.85;6.68;;;7.80;99.90;;;8.57;100.00;101517.13;5075505;28;20040;-78
2022/02/08 08:01:12;;;;;;;11.95;8.07;;;7.80;99.90;;;8.58;100.00;101513.19;5075617;28;20107;-78
2022/02/08 08:03:41;;;;;;;9.65;7.32;;;7.90;99.90;;;8.52;100.00;101512.50;5057798;28;20400;-77
2022/02/08 08:06:14;;;;;;;16.23;9.25;;;7.90;99.90;;;8.66;100.00;101521.56;5075222;28;20040;-78
2022/02/08 08:08:41;;;;;;;11.52;7.78;;;7.90;99.90;;;8.71;100.00;101517.78;5076079;28;20028;-79
2022/02/08 08:11:14;;;;;;;12.95;7.78;;;7.90;99.90;;;8.71;100.00;101517.78;5057667;28;20028;-76
2022/02/08 08:13:48;;;;;;;12.10;7.78;;;8.00;99.90;;;8.75;100.00;101524.38;5077004;28;20025;-80
2022/02/08 08:16:21;;;;;;;11.55;6.53;;;8.00;99.90;;;8.84;100.00;101522.41;5057019;28;20038;-77
2022/02/08 08:21:27;;;;;;;11.57;7.57;;;8.00;99.90;;;8.88;100.00;101524.22;5075936;28;20028;-78
2022/02/08 08:23:54;;;;;;;16.98;7.45;;;8.10;99.90;;;8.93;100.00;101518.50;5074769;28;20035;-79
2022/02/08 08:26:21;;;;;;;13.93;7.72;;;8.10;99.90;;;8.87;100.00;101514.22;5049357;28;20032;-79
2022/02/08 08:28:47;;;;;;;10.90;7.65;;;8.10;99.90;;;8.92;100.00;101507.69;5054738;28;20033;-81
2022/02/08 08:31:15;;;;;;;12.52;7.57;;;8.20;99.90;;;9.07;100.00;101514.72;5056192;28;20032;-80
2022/02/08 08:33:42;;;;;;;12.02;7.43;;;8.30;99.90;;;9.10;100.00;101526.06;5055338;28;20021;-78
2022/02/08 08:36:08;;;;;;;11.70;7.10;;;8.30;99.90;;;9.05;100.00;101526.22;5056335;28;20028;-78
2022/02/08 08:38:35;;;;;;;12.27;7.72;;;8.30;99.90;;;9.04;100.00;101520.97;5037100;28;20028;-79
2022/02/08 08:49:31;;;;;;;13.50;8.52;;;8.30;99.90;;;9.05;100.00;101542.13;5054845;28;20095;-77
2022/02/08 08:51:56;;;;;;;16.45;9.60;;;8.30;99.90;;;9.01;100.00;101544.72;5053708;28;20037;-77
2022/02/08 08:54:23;;;;;;;15.57;9.40;;;8.30;99.90;;;9.04;100.00;101537.69;5053960;28;20104;-79
2022/02/08 08:56:51;;;;;;;16.88;9.30;;;8.30;99.90;;;9.09;100.00;101541.13;5053720;28;20021;-80
2022/02/08 08:59:20;;;;;;;16.65;9.43;;;8.30;99.90;;;9.14;100.00;101540.16;5055567;28;20116;-79
2022/02/08 09:01:54;;;;;;;17.15;10.02;;;8.40;99.90;;;9.23;100.00;101544.59;5040843;28;20046;-80
2022/02/08 09:04:20;;;;;;;15.27;9.73;;;8.40;99.90;;;9.30;100.00;101536.56;5059296;28;20029;-81
2022/02/08 09:06:49;;;;;;;14.95;9.07;;;8.40;99.90;;;9.30;100.00;101546.88;5041838;28;20025;-79
2022/02/08 09:09:19;;;;;;;14.40;9.95;;;8.40;99.90;;;9.36;100.00;101548.34;5060257;28;20048;-81
2022/02/08 09:14:39;;;;;;;15.43;9.48;;;8.50;99.90;;;9.38;100.00;101557.19;5059457;28;20380;-78
2022/02/08 09:17:37;;;;;;;15.00;9.85;;;8.50;99.90;;;9.42;100.00;101556.22;5058403;28;20048;-76
2022/02/08 09:23:00;;;;;;;16.27;11.35;;;8.60;99.90;;;9.47;100.00;101550.47;5056456;28;20036;-77
2022/02/08 09:25:44;;;;;;;18.35;10.05;;;8.70;99.90;;;9.59;100.00;101549.81;5057051;28;20035;-79
2022/02/08 09:28:22;;;;;;;14.35;10.35;;;8.70;99.90;;;9.64;100.00;101544.06;5036999;28;20029;-77
2022/02/08 09:30:57;;;;;;;16.30;9.80;;;8.80;99.90;;;9.67;100.00;101545.38;5018623;28;20030;-78
2022/02/08 09:33:29;;;;;;;18.60;10.77;;;8.80;99.90;;;9.63;100.00;101548.03;5035955;28;20026;-79
2022/02/08 09:35:58;;;;;;;16.38;9.73;;;8.90;99.90;;;9.66;100.00;101546.53;5051875;28;20033;-81
2022/02/08 09:38:29;;;;;;;17.25;10.85;;;8.90;99.90;;;9.63;100.00;101542.44;5050478;28;20029;-82
2022/02/08 09:40:59;;;;;;;19.15;10.52;;;8.90;99.90;;;9.64;100.00;101546.03;5041819;28;20053;-79
2022/02/08 09:43:29;;;;;;;17.63;10.75;;;8.90;99.90;;;9.75;100.00;101548.16;5036204;28;20525;-79
2022/02/08 09:46:04;;;;;;;26.95;10.70;;;8.90;99.90;;;9.75;100.00;101539.78;5037690;28;20104;-79
2022/02/08 09:48:56;;;;;;;21.30;11.52;;;9.10;99.90;;;9.76;100.00;101540.63;5035569;28;20025;-79
2022/02/08 09:51:17;;;;;;;;;;;9.00;99.90;;;9.86;100.00;101549.44;5035090;28;20068;-79
2022/02/08 09:53:46;;;;;;;16.70;8.88;;;9.10;99.90;;;9.90;100.00;101544.84;5020366;28;19995;-78
2022/02/08 09:56:15;;;;;;;18.33;9.95;;;9.10;99.90;;;9.80;100.00;101534.03;5035107;28;20030;-79
2022/02/08 09:58:41;;;;;;;15.90;9.38;;;9.10;99.90;;;9.93;100.00;101543.34;5038197;28;20032;-79
2022/02/08 10:01:13;;;;;;;16.23;9.68;;;9.20;99.90;;;9.98;100.00;101545.97;5034827;28;20140;-79
2022/02/08 10:03:55;;;;;;;14.77;9.35;;;9.20;99.90;;;9.92;100.00;101547.31;5038425;28;20030;-78
2022/02/08 10:06:28;;;;;;;14.27;8.45;;;9.20;99.90;;;9.95;100.00;101557.81;5036288;28;20542;-79
2022/02/08 10:09:08;;;;;;;13.65;8.95;;;9.20;99.90;;;9.87;100.00;101548.28;5036932;28;20037;-79
2022/02/08 10:11:50;;;;;;;15.75;8.60;;;9.20;99.90;;;9.86;100.00;101548.59;5033550;28;20102;-78
2022/02/08 10:14:38;;;;;;;15.50;8.30;;;9.20;99.90;;;9.88;100.00;101547.16;5036163;28;20374;-79
2022/02/08 10:22:10;;;;;;;13.00;7.90;;;9.30;99.90;;;10.03;100.00;101554.16;5021692;28;20397;-79
2022/02/08 10:24:46;;;;;;;10.05;7.43;;;9.40;99.90;;;10.07;100.00;101550.38;5006837;28;20258;-79
2022/02/08 10:27:38;;;;;;;12.68;6.93;;;9.40;99.90;;;10.20;100.00;101554.16;5049381;28;20072;-80
2022/02/08 10:38:22;;;;;;;10.48;6.15;;;9.60;99.90;;;10.53;100.00;101557.94;5061641;28;20058;-77
2022/02/08 10:40:55;;;;;;;14.45;6.07;;;9.70;99.90;;;10.49;100.00;101570.94;5062027;28;20028;-77
2022/02/08 10:43:21;;;;;;;14.90;6.20;;;9.80;99.90;;;10.55;100.00;101561.22;5044527;28;20484;-78
2022/02/08 10:45:50;;;;;;;13.05;6.10;;;9.80;99.90;;;10.62;100.00;101565.47;5046841;28;20044;-78
2022/02/08 10:48:22;;;;;;;10.10;5.80;;;9.80;99.90;;;10.70;100.00;101562.63;5062147;28;20028;-77
2022/02/08 10:50:56;;;;;;;8.77;5.65;;;9.90;99.90;;;10.74;100.00;101559.97;5045931;28;20033;-78
2022/02/08 10:53:26;;;;;;;9.80;5.20;;;9.90;99.90;;;10.85;100.00;101558.44;5045845;28;20475;-78
2022/02/08 10:56:07;;;;;;;10.43;5.18;;;10.00;99.90;;;10.76;100.00;101552.06;5045356;28;20056;-76
2022/02/08 10:58:38;;;;;;;7.43;4.93;;;10.00;99.90;;;10.80;100.00;101555.81;5045781;28;20053;-76
2022/02/08 11:01:45;;;;;;;8.98;4.72;;;10.00;99.90;;;10.74;100.00;101557.19;5049608;28;20025;-79
2022/02/08 11:04:09;;;;;;;8.52;5.20;;;10.10;99.90;;;10.77;100.00;101553.72;5064865;28;20154;-77
2022/02/08 11:06:55;;;;;;;6.55;4.75;;;10.00;99.90;;;10.76;100.00;101549.25;5045757;28;20029;-78
2022/02/08 11:09:35;;;;;;;12.10;5.30;;;10.00;99.90;;;10.80;100.00;101550.25;5047325;28;20404;-79
2022/02/08 11:28:43;;;;;;;8.93;4.15;;;10.10;99.90;;;10.93;100.00;101568.75;5040251;28;20031;-78
2022/02/08 11:33:58;;;;;;;9.98;4.70;;;10.10;99.90;;;10.84;100.00;101560.41;5058492;28;20029;-77
2022/02/08 12:02:38;;;;;;;7.60;4.07;;;9.90;99.90;;;10.91;100.00;101555.13;5058232;28;20074;-79
2022/02/08 13:00:32;;;;;;;;;;;10.40;99.90;;;11.18;100.00;101531.38;5038151;28;20393;-78
2022/02/08 14:01:55;;;;;;;7.97;1.75;;;10.70;99.90;;;11.45;99.58;101524.44;5058437;28;20032;-78
2022/02/08 14:06:59;;;;;;;7.30;1.88;;;10.70;99.90;;;11.50;99.33;101530.63;5057944;28;20068;-78
2022/02/08 14:17:40;;;;;;;6.35;2.05;;;10.50;99.90;;;11.19;100.00;101533.03;5057709;28;20046;-78
2022/02/08 14:20:46;;;;;;;6.35;1.75;;;10.50;99.90;;;11.18;100.00;101531.38;5039988;28;20048;-78
2022/02/08 14:31:31;;;;;;;12.25;3.78;;;10.40;99.90;;;11.07;100.00;101539.38;5037702;28;20484;-76
2022/02/08 14:37:26;;;;;;;10.93;3.50;;;10.30;99.90;;;11.12;100.00;101549.53;5037426;28;20040;-77
2022/02/08 15:09:36;;;;;;;5.60;1.60;;;10.30;99.90;;;11.03;100.00;101563.56;5036028;28;20067;-78
2022/02/08 15:14:52;;;;;;;6.50;1.65;;;10.30;99.90;;;10.92;100.00;101553.94;5035199;28;20036;-77
2022/02/08 15:17:26;;;;;;;6.22;1.70;;;10.30;99.90;;;11.00;100.00;101558.66;5034863;28;20467;-76
2022/02/08 15:19:54;;;;;;;6.30;1.85;;;10.20;99.90;;;10.84;100.00;101552.03;5034942;28;20061;-78
2022/02/08 15:22:20;;;;;;;5.57;2.08;;;10.20;99.90;;;10.94;100.00;101557.22;5016571;28;20030;-78
2022/02/08 15:24:47;;;;;;;11.30;1.90;;;10.20;99.90;;;10.83;100.00;101553.19;5017343;28;20032;-76
2022/02/08 15:27:16;;;;;;;5.95;2.15;;;10.10;99.90;;;10.91;100.00;101560.72;5048474;28;20029;-76
2022/02/08 15:29:53;;;;;;;7.57;1.90;;;10.10;99.90;;;10.82;100.00;101554.31;5055132;28;20029;-78
2022/02/08 15:32:20;;;;;;;8.65;2.17;;;10.10;99.90;;;10.89;100.00;101563.00;5053110;28;20036;-76
2022/02/08 15:34:49;;;;;;;8.75;2.33;;;10.10;99.90;;;10.83;100.00;101566.31;5053275;28;20021;-76
2022/02/08 15:37:15;;;;;;;9.88;1.85;;;10.00;99.90;;;10.82;100.00;101570.31;5036209;28;20036;-77
2022/02/08 15:39:44;;;;;;;6.40;1.88;;;10.00;99.90;;;10.91;100.00;101569.09;5035381;28;20028;-77
2022/02/08 15:42:09;;;;;;;13.10;2.95;;;10.00;99.90;;;10.80;100.00;101561.41;5034955;28;20408;-76
2022/02/08 15:44:38;;;;;;;6.75;1.92;;;10.00;99.90;;;10.75;100.00;101561.63;5058212;28;20028;-77
2022/02/08 15:47:10;;;;;;;6.82;2.22;;;10.00;99.90;;;10.80;100.00;101555.81;5059084;28;20036;-76
2022/02/08 15:49:42;;;;;;;9.25;2.22;;;9.90;99.90;;;10.83;100.00;101555.97;5035887;28;20408;-76
2022/02/08 15:52:25;;;;;;;3.13;1.52;;;10.00;99.90;;;10.82;100.00;101556.31;5056706;28;20033;-75
2022/02/08 15:54:56;;;;;;;7.28;1.80;;;10.00;99.90;;;10.86;100.00;101557.25;5062606;28;20017;-76
2022/02/08 16:08:29;;;;;;;13.88;3.08;;;9.90;99.90;;;10.71;100.00;101572.66;5052986;28;20488;-76
2022/02/08 16:16:32;;;;;;;8.70;2.50;;;9.90;99.90;;;10.82;100.00;101573.09;5052144;28;20027;-77
2022/02/08 16:19:16;;;;;;;4.70;1.80;;;9.90;99.90;;;10.64;100.00;101569.56;5078448;22;20061;-78
2022/02/08 16:24:35;;;;;;;7.83;2.33;;;9.90;99.90;;;10.64;100.00;101566.75;5059652;28;20052;-78